sensor_id;sensor_type;location;lat;lon;timestamp;temperature;humidity
65995;HTU21D;52764;51.036;5.852;2023-04-21T00:00:08;8.97;83.63
65995;HTU21D;52764;51.036;5.852;2023-04-21T00:02:35;8.94;83.96
65995;HTU21D;52764;51.036;5.852;2023-04-21T00:05:08;8.98;83.94
65995;HTU21D;52764;51.036;5.852;2023-04-21T00:07:36;9.01;83.82
65995;HTU21D;52764;51.036;5.852;2023-04-21T00:10:07;9.02;83.63
65995;HTU21D;52764;51.036;5.852;2023-04-21T00:12:33;8.98;83.87
65995;HTU21D;52764;51.036;5.852;2023-04-21T00:14:58;8.97;83.76
65995;HTU21D;52764;51.036;5.852;2023-04-21T00:17:25;9.01;83.94
65995;HTU21D;52764;51.036;5.852;2023-04-21T00:19:50;9.03;83.94
65995;HTU21D;52764;51.036;5.852;2023-04-21T00:22:16;9.02;83.74
65995;HTU21D;52764;51.036;5.852;2023-04-21T00:24:43;8.98;83.77
65995;HTU21D;52764;51.036;5.852;2023-04-21T00:27:09;8.95;83.85
65995;HTU21D;52764;51.036;5.852;2023-04-21T00:29:37;8.93;83.93
65995;HTU21D;52764;51.036;5.852;2023-04-21T00:32:03;8.94;84.12
65995;HTU21D;52764;51.036;5.852;2023-04-21T00:34:33;8.93;84.07
65995;HTU21D;52764;51.036;5.852;2023-04-21T00:36:59;8.88;84.19
65995;HTU21D;52764;51.036;5.852;2023-04-21T00:39:24;8.86;84.46
65995;HTU21D;52764;51.036;5.852;2023-04-21T00:41:50;8.87;84.48
65995;HTU21D;52764;51.036;5.852;2023-04-21T00:44:16;8.89;84.40
65995;HTU21D;52764;51.036;5.852;2023-04-21T00:46:42;8.81;84.39
65995;HTU21D;52764;51.036;5.852;2023-04-21T00:49:08;8.79;84.40
65995;HTU21D;52764;51.036;5.852;2023-04-21T00:51:35;8.78;84.49
65995;HTU21D;52764;51.036;5.852;2023-04-21T00:54:03;8.79;84.37
65995;HTU21D;52764;51.036;5.852;2023-04-21T00:56:31;8.77;84.64
65995;HTU21D;52764;51.036;5.852;2023-04-21T00:58:58;8.81;84.44
65995;HTU21D;52764;51.036;5.852;2023-04-21T01:01:26;8.80;84.63
65995;HTU21D;52764;51.036;5.852;2023-04-21T01:03:57;8.85;84.52
65995;HTU21D;52764;51.036;5.852;2023-04-21T01:06:24;8.82;84.18
65995;HTU21D;52764;51.036;5.852;2023-04-21T01:08:52;8.82;84.81
65995;HTU21D;52764;51.036;5.852;2023-04-21T01:11:19;8.92;84.63
65995;HTU21D;52764;51.036;5.852;2023-04-21T01:13:45;9.00;84.48
65995;HTU21D;52764;51.036;5.852;2023-04-21T01:16:22;9.07;84.24
65995;HTU21D;52764;51.036;5.852;2023-04-21T01:18:49;9.17;83.91
65995;HTU21D;52764;51.036;5.852;2023-04-21T01:21:16;9.18;83.86
65995;HTU21D;52764;51.036;5.852;2023-04-21T01:23:43;9.21;83.64
65995;HTU21D;52764;51.036;5.852;2023-04-21T01:26:10;9.22;83.42
65995;HTU21D;52764;51.036;5.852;2023-04-21T01:28:36;9.10;83.59
65995;HTU21D;52764;51.036;5.852;2023-04-21T01:31:04;9.05;83.91
65995;HTU21D;52764;51.036;5.852;2023-04-21T01:33:30;9.03;84.01
65995;HTU21D;52764;51.036;5.852;2023-04-21T01:35:57;9.10;84.26
65995;HTU21D;52764;51.036;5.852;2023-04-21T01:38:24;9.20;84.03
65995;HTU21D;52764;51.036;5.852;2023-04-21T01:40:51;9.34;83.63
65995;HTU21D;52764;51.036;5.852;2023-04-21T01:43:20;9.34;83.23
65995;HTU21D;52764;51.036;5.852;2023-04-21T01:45:47;9.38;82.85
65995;HTU21D;52764;51.036;5.852;2023-04-21T01:48:12;9.39;82.49
65995;HTU21D;52764;51.036;5.852;2023-04-21T01:50:39;9.39;82.37
65995;HTU21D;52764;51.036;5.852;2023-04-21T01:53:04;9.42;82.39
65995;HTU21D;52764;51.036;5.852;2023-04-21T01:55:31;9.47;82.43
65995;HTU21D;52764;51.036;5.852;2023-04-21T01:57:57;9.45;82.63
65995;HTU21D;52764;51.036;5.852;2023-04-21T02:00:24;9.50;83.11
65995;HTU21D;52764;51.036;5.852;2023-04-21T02:02:51;9.59;83.26
65995;HTU21D;52764;51.036;5.852;2023-04-21T02:05:17;9.67;82.98
65995;HTU21D;52764;51.036;5.852;2023-04-21T02:07:43;9.75;82.69
65995;HTU21D;52764;51.036;5.852;2023-04-21T02:10:09;9.82;82.33
65995;HTU21D;52764;51.036;5.852;2023-04-21T02:12:35;9.80;81.72
65995;HTU21D;52764;51.036;5.852;2023-04-21T02:15:01;9.71;81.93
65995;HTU21D;52764;51.036;5.852;2023-04-21T02:17:27;9.63;82.30
65995;HTU21D;52764;51.036;5.852;2023-04-21T02:19:55;9.55;82.77
65995;HTU21D;52764;51.036;5.852;2023-04-21T02:22:21;9.61;82.86
65995;HTU21D;52764;51.036;5.852;2023-04-21T02:24:49;9.67;82.80
65995;HTU21D;52764;51.036;5.852;2023-04-21T02:27:15;9.72;82.58
65995;HTU21D;52764;51.036;5.852;2023-04-21T02:29:40;9.78;82.26
65995;HTU21D;52764;51.036;5.852;2023-04-21T02:32:07;9.81;81.98
65995;HTU21D;52764;51.036;5.852;2023-04-21T02:34:32;9.84;81.94
65995;HTU21D;52764;51.036;5.852;2023-04-21T02:36:58;9.79;81.81
65995;HTU21D;52764;51.036;5.852;2023-04-21T02:39:25;9.70;82.03
65995;HTU21D;52764;51.036;5.852;2023-04-21T02:41:51;0.13;82.29
65995;HTU21D;52764;51.036;5.852;2023-04-21T02:44:17;9.57;82.54
65995;HTU21D;52764;51.036;5.852;2023-04-21T02:46:43;9.60;82.58
65995;HTU21D;52764;51.036;5.852;2023-04-21T02:49:10;9.56;82.57
65995;HTU21D;52764;51.036;5.852;2023-04-21T02:51:36;9.51;82.74
65995;HTU21D;52764;51.036;5.852;2023-04-21T02:54:02;9.51;82.83
65995;HTU21D;52764;51.036;5.852;2023-04-21T02:56:28;9.50;83.11
65995;HTU21D;52764;51.036;5.852;2023-04-21T02:58:53;9.48;83.04
65995;HTU21D;52764;51.036;5.852;2023-04-21T03:01:19;9.45;83.15
65995;HTU21D;52764;51.036;5.852;2023-04-21T03:03:45;9.38;83.29
65995;HTU21D;52764;51.036;5.852;2023-04-21T03:06:11;9.39;83.53
65995;HTU21D;52764;51.036;5.852;2023-04-21T03:08:38;9.36;83.58
65995;HTU21D;52764;51.036;5.852;2023-04-21T03:11:04;9.32;83.68
65995;HTU21D;52764;51.036;5.852;2023-04-21T03:13:30;9.33;83.75
65995;HTU21D;52764;51.036;5.852;2023-04-21T03:15:56;9.33;83.84
65995;HTU21D;52764;51.036;5.852;2023-04-21T03:18:22;9.33;83.81
65995;HTU21D;52764;51.036;5.852;2023-04-21T03:20:49;9.22;83.92
65995;HTU21D;52764;51.036;5.852;2023-04-21T03:23:15;9.22;83.86
65995;HTU21D;52764;51.036;5.852;2023-04-21T03:25:42;9.18;84.00
65995;HTU21D;52764;51.036;5.852;2023-04-21T03:28:08;9.18;83.97
65995;HTU21D;52764;51.036;5.852;2023-04-21T03:30:34;9.15;84.03
65995;HTU21D;52764;51.036;5.852;2023-04-21T03:33:00;9.11;84.00
65995;HTU21D;52764;51.036;5.852;2023-04-21T03:35:25;9.16;83.87
65995;HTU21D;52764;51.036;5.852;2023-04-21T03:37:51;9.10;83.71
65995;HTU21D;52764;51.036;5.852;2023-04-21T03:40:17;9.06;83.68
65995;HTU21D;52764;51.036;5.852;2023-04-21T03:42:43;9.00;83.78
65995;HTU21D;52764;51.036;5.852;2023-04-21T03:45:09;8.96;83.84
65995;HTU21D;52764;51.036;5.852;2023-04-21T03:47:35;8.95;83.83
65995;HTU21D;52764;51.036;5.852;2023-04-21T03:50:05;8.90;83.97
65995;HTU21D;52764;51.036;5.852;2023-04-21T03:52:31;8.88;83.97
65995;HTU21D;52764;51.036;5.852;2023-04-21T03:54:57;8.85;84.07
65995;HTU21D;52764;51.036;5.852;2023-04-21T03:57:22;8.82;84.08
65995;HTU21D;52764;51.036;5.852;2023-04-21T03:59:48;8.77;84.13
65995;HTU21D;52764;51.036;5.852;2023-04-21T04:02:14;8.72;84.16
65995;HTU21D;52764;51.036;5.852;2023-04-21T04:04:39;8.63;84.39
65995;HTU21D;52764;51.036;5.852;2023-04-21T04:07:05;8.55;84.58
65995;HTU21D;52764;51.036;5.852;2023-04-21T04:09:33;8.46;84.81
65995;HTU21D;52764;51.036;5.852;2023-04-21T04:11:59;8.41;85.07
65995;HTU21D;52764;51.036;5.852;2023-04-21T04:14:24;8.35;85.31
65995;HTU21D;52764;51.036;5.852;2023-04-21T04:16:50;8.30;85.51
65995;HTU21D;52764;51.036;5.852;2023-04-21T04:19:16;8.29;85.62
65995;HTU21D;52764;51.036;5.852;2023-04-21T04:21:41;8.26;85.68
65995;HTU21D;52764;51.036;5.852;2023-04-21T04:24:07;8.27;85.70
65995;HTU21D;52764;51.036;5.852;2023-04-21T04:26:33;8.28;85.66
65995;HTU21D;52764;51.036;5.852;2023-04-21T04:28:59;8.29;85.58
65995;HTU21D;52764;51.036;5.852;2023-04-21T04:31:30;8.35;85.38
65995;HTU21D;52764;51.036;5.852;2023-04-21T04:33:56;8.38;85.06
65995;HTU21D;52764;51.036;5.852;2023-04-21T04:36:23;8.37;84.98
65995;HTU21D;52764;51.036;5.852;2023-04-21T04:38:49;8.38;84.91
65995;HTU21D;52764;51.036;5.852;2023-04-21T04:41:15;8.42;84.81
65995;HTU21D;52764;51.036;5.852;2023-04-21T04:43:41;8.37;84.73
65995;HTU21D;52764;51.036;5.852;2023-04-21T04:46:07;8.31;84.87
65995;HTU21D;52764;51.036;5.852;2023-04-21T04:48:38;8.26;84.91
65995;HTU21D;52764;51.036;5.852;2023-04-21T04:51:04;8.26;85.00
65995;HTU21D;52764;51.036;5.852;2023-04-21T04:53:30;8.26;85.05
65995;HTU21D;52764;51.036;5.852;2023-04-21T04:55:58;8.28;85.09
65995;HTU21D;52764;51.036;5.852;2023-04-21T04:58:24;8.29;85.07
65995;HTU21D;52764;51.036;5.852;2023-04-21T05:00:50;8.30;85.00
65995;HTU21D;52764;51.036;5.852;2023-04-21T05:03:16;8.29;84.95
65995;HTU21D;52764;51.036;5.852;2023-04-21T05:05:41;8.28;84.99
65995;HTU21D;52764;51.036;5.852;2023-04-21T05:08:07;8.32;84.93
65995;HTU21D;52764;51.036;5.852;2023-04-21T05:10:33;8.36;84.92
65995;HTU21D;52764;51.036;5.852;2023-04-21T05:12:59;8.35;84.88
65995;HTU21D;52764;51.036;5.852;2023-04-21T05:15:25;8.38;84.67
65995;HTU21D;52764;51.036;5.852;2023-04-21T05:17:51;8.29;84.68
65995;HTU21D;52764;51.036;5.852;2023-04-21T05:20:16;8.27;84.46
65995;HTU21D;52764;51.036;5.852;2023-04-21T05:22:42;8.22;84.59
65995;HTU21D;52764;51.036;5.852;2023-04-21T05:25:10;8.28;84.84
65995;HTU21D;52764;51.036;5.852;2023-04-21T05:27:44;8.53;84.97
65995;HTU21D;52764;51.036;5.852;2023-04-21T05:30:10;8.74;84.50
65995;HTU21D;52764;51.036;5.852;2023-04-21T05:32:36;9.08;83.81
65995;HTU21D;52764;51.036;5.852;2023-04-21T05:35:02;9.46;83.16
65995;HTU21D;52764;51.036;5.852;2023-04-21T05:37:28;9.97;82.86
65995;HTU21D;52764;51.036;5.852;2023-04-21T05:39:54;10.78;81.21
65995;HTU21D;52764;51.036;5.852;2023-04-21T05:42:20;11.32;75.95
65995;HTU21D;52764;51.036;5.852;2023-04-21T05:44:46;11.78;76.15
65995;HTU21D;52764;51.036;5.852;2023-04-21T05:47:12;12.27;74.51
65995;HTU21D;52764;51.036;5.852;2023-04-21T05:49:37;12.80;73.07
65995;HTU21D;52764;51.036;5.852;2023-04-21T05:52:03;13.40;71.00
65995;HTU21D;52764;51.036;5.852;2023-04-21T05:54:29;13.84;68.66
65995;HTU21D;52764;51.036;5.852;2023-04-21T05:56:54;14.11;66.98
65995;HTU21D;52764;51.036;5.852;2023-04-21T05:59:21;14.43;66.05
65995;HTU21D;52764;51.036;5.852;2023-04-21T06:01:47;14.62;65.25
65995;HTU21D;52764;51.036;5.852;2023-04-21T06:04:12;14.89;63.91
65995;HTU21D;52764;51.036;5.852;2023-04-21T06:06:38;15.16;63.07
65995;HTU21D;52764;51.036;5.852;2023-04-21T06:09:04;15.36;62.15
65995;HTU21D;52764;51.036;5.852;2023-04-21T06:11:30;15.55;60.80
65995;HTU21D;52764;51.036;5.852;2023-04-21T06:13:57;11.79;61.03
65995;HTU21D;52764;51.036;5.852;2023-04-21T06:16:24;15.58;60.99
65995;HTU21D;52764;51.036;5.852;2023-04-21T06:18:50;15.84;58.42
65995;HTU21D;52764;51.036;5.852;2023-04-21T06:21:16;15.77;60.09
65995;HTU21D;52764;51.036;5.852;2023-04-21T06:23:42;15.39;58.66
65995;HTU21D;52764;51.036;5.852;2023-04-21T06:26:07;15.18;61.51
65995;HTU21D;52764;51.036;5.852;2023-04-21T06:28:35;14.52;61.96
65995;HTU21D;52764;51.036;5.852;2023-04-21T06:31:02;15.63;59.73
65995;HTU21D;52764;51.036;5.852;2023-04-21T06:33:29;15.78;59.75
65995;HTU21D;52764;51.036;5.852;2023-04-21T06:35:55;12.46;57.41
65995;HTU21D;52764;51.036;5.852;2023-04-21T06:38:21;15.46;58.19
65995;HTU21D;52764;51.036;5.852;2023-04-21T06:40:47;15.10;60.08
65995;HTU21D;52764;51.036;5.852;2023-04-21T06:43:13;14.91;61.11
65995;HTU21D;52764;51.036;5.852;2023-04-21T06:45:39;15.12;61.31
65995;HTU21D;52764;51.036;5.852;2023-04-21T06:48:05;15.73;64.43
65995;HTU21D;52764;51.036;5.852;2023-04-21T06:50:31;15.63;62.20
65995;HTU21D;52764;51.036;5.852;2023-04-21T06:52:56;14.98;62.98
65995;HTU21D;52764;51.036;5.852;2023-04-21T06:55:22;15.07;60.41
65995;HTU21D;52764;51.036;5.852;2023-04-21T06:57:48;15.04;60.17
65995;HTU21D;52764;51.036;5.852;2023-04-21T07:00:14;15.10;58.96
65995;HTU21D;52764;51.036;5.852;2023-04-21T07:02:40;14.50;62.84
65995;HTU21D;52764;51.036;5.852;2023-04-21T07:05:08;15.25;59.27
65995;HTU21D;52764;51.036;5.852;2023-04-21T07:07:34;16.27;57.09
65995;HTU21D;52764;51.036;5.852;2023-04-21T07:10:00;15.83;56.82
65995;HTU21D;52764;51.036;5.852;2023-04-21T07:12:25;15.87;57.45
65995;HTU21D;52764;51.036;5.852;2023-04-21T07:14:51;15.83;57.87
65995;HTU21D;52764;51.036;5.852;2023-04-21T07:17:17;15.55;57.36
65995;HTU21D;52764;51.036;5.852;2023-04-21T07:19:42;-10.49;58.35
65995;HTU21D;52764;51.036;5.852;2023-04-21T07:22:08;15.73;59.29
65995;HTU21D;52764;51.036;5.852;2023-04-21T07:24:34;16.11;57.33
65995;HTU21D;52764;51.036;5.852;2023-04-21T07:27:02;16.34;56.09
65995;HTU21D;52764;51.036;5.852;2023-04-21T07:29:28;16.54;56.45
65995;HTU21D;52764;51.036;5.852;2023-04-21T07:31:54;16.78;55.64
65995;HTU21D;52764;51.036;5.852;2023-04-21T07:34:20;16.85;54.37
65995;HTU21D;52764;51.036;5.852;2023-04-21T07:36:46;16.41;48.68
65995;HTU21D;52764;51.036;5.852;2023-04-21T07:39:12;16.57;54.94
65995;HTU21D;52764;51.036;5.852;2023-04-21T07:41:38;17.00;54.02
65995;HTU21D;52764;51.036;5.852;2023-04-21T07:44:04;15.51;53.10
65995;HTU21D;52764;51.036;5.852;2023-04-21T07:46:29;17.26;48.44
65995;HTU21D;52764;51.036;5.852;2023-04-21T07:48:57;17.24;53.81
65995;HTU21D;52764;51.036;5.852;2023-04-21T07:51:24;17.62;53.03
65995;HTU21D;52764;51.036;5.852;2023-04-21T07:53:50;18.06;49.76
65995;HTU21D;52764;51.036;5.852;2023-04-21T07:56:16;17.45;50.70
65995;HTU21D;52764;51.036;5.852;2023-04-21T07:58:42;17.30;47.61
65995;HTU21D;52764;51.036;5.852;2023-04-21T08:01:08;17.68;51.90
65995;HTU21D;52764;51.036;5.852;2023-04-21T08:03:35;17.84;51.72
65995;HTU21D;52764;51.036;5.852;2023-04-21T08:06:01;17.89;50.11
65995;HTU21D;52764;51.036;5.852;2023-04-21T08:08:26;17.90;50.50
65995;HTU21D;52764;51.036;5.852;2023-04-21T08:10:53;17.64;50.44
65995;HTU21D;52764;51.036;5.852;2023-04-21T08:13:18;17.81;50.86
65995;HTU21D;52764;51.036;5.852;2023-04-21T08:15:46;17.97;50.04
65995;HTU21D;52764;51.036;5.852;2023-04-21T08:18:11;18.25;49.82
65995;HTU21D;52764;51.036;5.852;2023-04-21T08:20:37;18.13;48.51
65995;HTU21D;52764;51.036;5.852;2023-04-21T08:23:03;17.67;48.82
65995;HTU21D;52764;51.036;5.852;2023-04-21T08:25:28;17.75;44.27
65995;HTU21D;52764;51.036;5.852;2023-04-21T08:27:55;17.45;50.28
65995;HTU21D;52764;51.036;5.852;2023-04-21T08:30:21;17.11;44.27
65995;HTU21D;52764;51.036;5.852;2023-04-21T08:32:46;17.41;51.09
65995;HTU21D;52764;51.036;5.852;2023-04-21T08:35:12;17.87;50.38
65995;HTU21D;52764;51.036;5.852;2023-04-21T08:37:38;17.87;49.95
65995;HTU21D;52764;51.036;5.852;2023-04-21T08:40:05;17.11;50.37
65995;HTU21D;52764;51.036;5.852;2023-04-21T08:42:33;16.03;52.85
65995;HTU21D;52764;51.036;5.852;2023-04-21T08:44:59;15.28;54.00
65995;HTU21D;52764;51.036;5.852;2023-04-21T08:47:25;15.19;52.43
65995;HTU21D;52764;51.036;5.852;2023-04-21T08:49:51;15.10;54.89
65995;HTU21D;52764;51.036;5.852;2023-04-21T08:52:18;15.06;55.90
65995;HTU21D;52764;51.036;5.852;2023-04-21T08:54:45;14.95;55.54
65995;HTU21D;52764;51.036;5.852;2023-04-21T08:57:11;14.52;56.84
65995;HTU21D;52764;51.036;5.852;2023-04-21T08:59:37;14.63;57.53
65995;HTU21D;52764;51.036;5.852;2023-04-21T09:02:17;14.56;57.02
65995;HTU21D;52764;51.036;5.852;2023-04-21T09:04:45;14.65;56.91
65995;HTU21D;52764;51.036;5.852;2023-04-21T09:07:12;14.77;58.19
65995;HTU21D;52764;51.036;5.852;2023-04-21T09:09:55;-11.07;56.67
65995;HTU21D;52764;51.036;5.852;2023-04-21T09:12:22;11.13;56.10
65995;HTU21D;52764;51.036;5.852;2023-04-21T09:14:48;14.88;57.40
65995;HTU21D;52764;51.036;5.852;2023-04-21T09:17:16;14.63;57.70
65995;HTU21D;52764;51.036;5.852;2023-04-21T09:19:42;14.62;57.67
65995;HTU21D;52764;51.036;5.852;2023-04-21T09:22:08;14.44;56.93
65995;HTU21D;52764;51.036;5.852;2023-04-21T09:24:34;14.55;57.57
65995;HTU21D;52764;51.036;5.852;2023-04-21T09:27:02;14.75;58.42
65995;HTU21D;52764;51.036;5.852;2023-04-21T09:29:29;14.86;57.03
65995;HTU21D;52764;51.036;5.852;2023-04-21T09:31:55;14.67;57.46
65995;HTU21D;52764;51.036;5.852;2023-04-21T09:34:25;14.63;58.46
65995;HTU21D;52764;51.036;5.852;2023-04-21T09:37:03;14.73;58.23
65995;HTU21D;52764;51.036;5.852;2023-04-21T09:39:31;14.84;56.88
65995;HTU21D;52764;51.036;5.852;2023-04-21T09:41:58;14.92;58.69
65995;HTU21D;52764;51.036;5.852;2023-04-21T09:44:24;15.16;56.24
65995;HTU21D;52764;51.036;5.852;2023-04-21T09:46:55;15.19;57.15
65995;HTU21D;52764;51.036;5.852;2023-04-21T09:49:28;15.34;56.73
65995;HTU21D;52764;51.036;5.852;2023-04-21T09:51:56;15.31;56.45
65995;HTU21D;52764;51.036;5.852;2023-04-21T09:54:31;15.37;56.50
65995;HTU21D;52764;51.036;5.852;2023-04-21T09:57:00;15.12;56.81
65995;HTU21D;52764;51.036;5.852;2023-04-21T09:59:34;15.07;56.68
65995;HTU21D;52764;51.036;5.852;2023-04-21T10:02:04;14.87;57.19
65995;HTU21D;52764;51.036;5.852;2023-04-21T10:04:31;15.07;57.13
65995;HTU21D;52764;51.036;5.852;2023-04-21T10:07:02;14.96;56.75
65995;HTU21D;52764;51.036;5.852;2023-04-21T10:09:48;15.07;56.45
65995;HTU21D;52764;51.036;5.852;2023-04-21T10:12:17;14.93;55.70
65995;HTU21D;52764;51.036;5.852;2023-04-21T10:14:43;14.89;56.49
65995;HTU21D;52764;51.036;5.852;2023-04-21T10:17:09;14.98;56.53
65995;HTU21D;52764;51.036;5.852;2023-04-21T10:19:37;14.99;57.59
65995;HTU21D;52764;51.036;5.852;2023-04-21T10:22:12;15.12;57.42
65995;HTU21D;52764;51.036;5.852;2023-04-21T10:24:39;15.15;56.49
65995;HTU21D;52764;51.036;5.852;2023-04-21T10:27:09;15.10;56.80
65995;HTU21D;52764;51.036;5.852;2023-04-21T10:29:36;15.01;56.48
65995;HTU21D;52764;51.036;5.852;2023-04-21T10:32:03;14.93;56.23
65995;HTU21D;52764;51.036;5.852;2023-04-21T10:34:34;15.13;56.41
65995;HTU21D;52764;51.036;5.852;2023-04-21T10:44:44;15.54;56.74
65995;HTU21D;52764;51.036;5.852;2023-04-21T10:47:45;15.67;55.81
65995;HTU21D;52764;51.036;5.852;2023-04-21T10:50:32;15.73;55.90
65995;HTU21D;52764;51.036;5.852;2023-04-21T10:53:11;15.72;54.49
65995;HTU21D;52764;51.036;5.852;2023-04-21T10:55:38;15.52;54.95
65995;HTU21D;52764;51.036;5.852;2023-04-21T10:58:08;15.30;53.94
65995;HTU21D;52764;51.036;5.852;2023-04-21T11:00:35;15.33;53.98
65995;HTU21D;52764;51.036;5.852;2023-04-21T11:03:05;15.30;54.43
65995;HTU21D;52764;51.036;5.852;2023-04-21T11:05:37;15.30;54.62
65995;HTU21D;52764;51.036;5.852;2023-04-21T11:08:06;15.34;54.81
65995;HTU21D;52764;51.036;5.852;2023-04-21T11:10:53;15.38;54.85
65995;HTU21D;52764;51.036;5.852;2023-04-21T11:13:24;15.58;54.74
65995;HTU21D;52764;51.036;5.852;2023-04-21T11:16:05;15.60;54.07
65995;HTU21D;52764;51.036;5.852;2023-04-21T11:18:42;15.84;54.65
65995;HTU21D;52764;51.036;5.852;2023-04-21T11:21:14;15.63;52.85
65995;HTU21D;52764;51.036;5.852;2023-04-21T11:23:53;15.73;54.18
65995;HTU21D;52764;51.036;5.852;2023-04-21T11:26:48;15.67;53.59
65995;HTU21D;52764;51.036;5.852;2023-04-21T11:29:15;15.74;53.65
65995;HTU21D;52764;51.036;5.852;2023-04-21T11:31:43;15.85;53.59
65995;HTU21D;52764;51.036;5.852;2023-04-21T11:34:10;15.91;53.66
65995;HTU21D;52764;51.036;5.852;2023-04-21T11:36:41;15.99;53.37
65995;HTU21D;52764;51.036;5.852;2023-04-21T11:39:09;16.10;53.31
65995;HTU21D;52764;51.036;5.852;2023-04-21T11:41:39;16.19;52.45
65995;HTU21D;52764;51.036;5.852;2023-04-21T11:44:06;16.37;53.06
65995;HTU21D;52764;51.036;5.852;2023-04-21T11:46:32;16.43;52.02
65995;HTU21D;52764;51.036;5.852;2023-04-21T11:49:01;16.36;52.40
65995;HTU21D;52764;51.036;5.852;2023-04-21T11:51:36;16.41;52.65
65995;HTU21D;52764;51.036;5.852;2023-04-21T11:54:04;16.35;53.20
65995;HTU21D;52764;51.036;5.852;2023-04-21T11:56:37;16.26;51.76
65995;HTU21D;52764;51.036;5.852;2023-04-21T11:59:22;16.33;52.96
65995;HTU21D;52764;51.036;5.852;2023-04-21T12:01:52;16.61;52.36
65995;HTU21D;52764;51.036;5.852;2023-04-21T12:04:24;16.66;50.37
65995;HTU21D;52764;51.036;5.852;2023-04-21T12:06:57;16.51;51.45
65995;HTU21D;52764;51.036;5.852;2023-04-21T12:09:24;16.56;50.67
65995;HTU21D;52764;51.036;5.852;2023-04-21T12:11:52;16.54;51.64
65995;HTU21D;52764;51.036;5.852;2023-04-21T12:14:20;16.64;51.58
65995;HTU21D;52764;51.036;5.852;2023-04-21T12:16:52;16.70;51.31
65995;HTU21D;52764;51.036;5.852;2023-04-21T12:19:37;16.41;50.45
65995;HTU21D;52764;51.036;5.852;2023-04-21T12:22:11;16.45;51.33
65995;HTU21D;52764;51.036;5.852;2023-04-21T12:24:38;16.54;52.17
65995;HTU21D;52764;51.036;5.852;2023-04-21T12:27:05;16.52;52.07
65995;HTU21D;52764;51.036;5.852;2023-04-21T12:29:31;16.46;51.43
65995;HTU21D;52764;51.036;5.852;2023-04-21T12:32:00;16.69;52.28
65995;HTU21D;52764;51.036;5.852;2023-04-21T12:34:26;16.70;49.57
65995;HTU21D;52764;51.036;5.852;2023-04-21T12:36:52;16.77;51.40
65995;HTU21D;52764;51.036;5.852;2023-04-21T12:39:17;16.92;49.98
65995;HTU21D;52764;51.036;5.852;2023-04-21T12:41:47;16.85;49.73
65995;HTU21D;52764;51.036;5.852;2023-04-21T12:44:13;16.95;50.26
65995;HTU21D;52764;51.036;5.852;2023-04-21T12:46:40;17.07;49.40
65995;HTU21D;52764;51.036;5.852;2023-04-21T12:49:06;17.09;48.60
65995;HTU21D;52764;51.036;5.852;2023-04-21T12:51:33;17.10;46.78
65995;HTU21D;52764;51.036;5.852;2023-04-21T12:53:59;16.92;47.55
65995;HTU21D;52764;51.036;5.852;2023-04-21T12:56:26;17.02;48.15
65995;HTU21D;52764;51.036;5.852;2023-04-21T12:58:52;17.17;48.53
65995;HTU21D;52764;51.036;5.852;2023-04-21T13:01:19;17.39;48.90
65995;HTU21D;52764;51.036;5.852;2023-04-21T13:03:45;17.54;47.55
65995;HTU21D;52764;51.036;5.852;2023-04-21T13:06:11;17.61;47.67
65995;HTU21D;52764;51.036;5.852;2023-04-21T13:08:37;17.77;48.44
65995;HTU21D;52764;51.036;5.852;2023-04-21T13:11:02;17.77;46.91
65995;HTU21D;52764;51.036;5.852;2023-04-21T13:13:29;17.68;47.12
65995;HTU21D;52764;51.036;5.852;2023-04-21T13:15:55;17.68;47.60
65995;HTU21D;52764;51.036;5.852;2023-04-21T13:18:21;17.63;46.96
65995;HTU21D;52764;51.036;5.852;2023-04-21T13:20:47;17.76;47.44
65995;HTU21D;52764;51.036;5.852;2023-04-21T13:23:12;17.88;47.68
65995;HTU21D;52764;51.036;5.852;2023-04-21T13:25:39;18.04;47.16
65995;HTU21D;52764;51.036;5.852;2023-04-21T13:28:05;18.06;45.70
65995;HTU21D;52764;51.036;5.852;2023-04-21T13:30:33;17.98;45.34
65995;HTU21D;52764;51.036;5.852;2023-04-21T13:32:59;17.98;45.42
65995;HTU21D;52764;51.036;5.852;2023-04-21T13:35:24;17.82;45.55
65995;HTU21D;52764;51.036;5.852;2023-04-21T13:37:50;17.64;45.77
65995;HTU21D;52764;51.036;5.852;2023-04-21T13:40:16;17.54;46.33
65995;HTU21D;52764;51.036;5.852;2023-04-21T13:42:42;17.79;46.10
65995;HTU21D;52764;51.036;5.852;2023-04-21T13:45:08;17.74;45.12
65995;HTU21D;52764;51.036;5.852;2023-04-21T13:47:34;17.96;44.53
65995;HTU21D;52764;51.036;5.852;2023-04-21T13:50:00;18.14;45.28
65995;HTU21D;52764;51.036;5.852;2023-04-21T13:52:26;18.25;43.97
65995;HTU21D;52764;51.036;5.852;2023-04-21T13:54:52;18.38;42.98
65995;HTU21D;52764;51.036;5.852;2023-04-21T13:57:19;18.43;43.25
65995;HTU21D;52764;51.036;5.852;2023-04-21T13:59:46;18.38;43.49
65995;HTU21D;52764;51.036;5.852;2023-04-21T14:02:12;18.27;42.65
65995;HTU21D;52764;51.036;5.852;2023-04-21T14:04:38;18.17;43.47
65995;HTU21D;52764;51.036;5.852;2023-04-21T14:07:05;18.09;43.68
65995;HTU21D;52764;51.036;5.852;2023-04-21T14:09:32;17.85;41.94
65995;HTU21D;52764;51.036;5.852;2023-04-21T14:11:58;17.77;43.26
65995;HTU21D;52764;51.036;5.852;2023-04-21T14:14:24;17.93;43.37
65995;HTU21D;52764;51.036;5.852;2023-04-21T14:16:50;18.10;43.62
65995;HTU21D;52764;51.036;5.852;2023-04-21T14:19:16;18.21;43.45
65995;HTU21D;52764;51.036;5.852;2023-04-21T14:21:42;18.28;43.91
65995;HTU21D;52764;51.036;5.852;2023-04-21T14:24:08;18.32;43.02
65995;HTU21D;52764;51.036;5.852;2023-04-21T14:26:34;18.10;43.61
65995;HTU21D;52764;51.036;5.852;2023-04-21T14:29:00;18.05;43.40
65995;HTU21D;52764;51.036;5.852;2023-04-21T14:31:27;18.25;43.32
65995;HTU21D;52764;51.036;5.852;2023-04-21T14:33:53;18.36;43.43
65995;HTU21D;52764;51.036;5.852;2023-04-21T14:36:19;18.36;41.07
65995;HTU21D;52764;51.036;5.852;2023-04-21T14:38:45;18.29;39.89
65995;HTU21D;52764;51.036;5.852;2023-04-21T14:41:11;18.29;39.95
65995;HTU21D;52764;51.036;5.852;2023-04-21T14:43:36;18.30;40.29
65995;HTU21D;52764;51.036;5.852;2023-04-21T14:46:02;18.43;40.58
65995;HTU21D;52764;51.036;5.852;2023-04-21T14:48:28;18.34;40.42
65995;HTU21D;52764;51.036;5.852;2023-04-21T14:50:54;18.47;40.43
65995;HTU21D;52764;51.036;5.852;2023-04-21T14:53:25;18.67;40.16
65995;HTU21D;52764;51.036;5.852;2023-04-21T14:55:50;18.70;39.07
65995;HTU21D;52764;51.036;5.852;2023-04-21T14:58:16;18.71;40.24
65995;HTU21D;52764;51.036;5.852;2023-04-21T15:00:42;18.86;39.68
65995;HTU21D;52764;51.036;5.852;2023-04-21T15:03:08;19.03;39.52
65995;HTU21D;52764;51.036;5.852;2023-04-21T15:05:34;19.00;38.42
65995;HTU21D;52764;51.036;5.852;2023-04-21T15:08:01;18.63;39.46
65995;HTU21D;52764;51.036;5.852;2023-04-21T15:10:27;18.43;39.89
65995;HTU21D;52764;51.036;5.852;2023-04-21T15:12:55;18.47;40.15
65995;HTU21D;52764;51.036;5.852;2023-04-21T15:15:22;18.29;39.97
65995;HTU21D;52764;51.036;5.852;2023-04-21T15:17:47;18.36;24.48
65995;HTU21D;52764;51.036;5.852;2023-04-21T15:20:13;18.53;40.91
65995;HTU21D;52764;51.036;5.852;2023-04-21T15:22:39;18.64;40.65
65995;HTU21D;52764;51.036;5.852;2023-04-21T15:25:05;18.79;40.96
65995;HTU21D;52764;51.036;5.852;2023-04-21T15:27:31;18.92;40.97
65995;HTU21D;52764;51.036;5.852;2023-04-21T15:29:57;18.99;41.23